createdAt,value
2022-11-21T16:10:31.820Z,936.765625
2022-11-21T16:11:32.251Z,936.7874756
2022-11-21T16:12:33.138Z,936.7149048
2022-11-21T16:13:34.640Z,936.6802979
2022-11-21T16:14:35.319Z,936.6570435
2022-11-21T16:15:35.959Z,936.6556396
2022-11-21T16:16:41.497Z,936.71521
2022-11-21T16:17:37.294Z,936.7574463
2022-11-21T16:18:37.972Z,936.8024902
2022-11-21T16:19:38.667Z,936.7663574
2022-11-21T16:20:39.342Z,936.6972046
2022-11-21T16:21:39.817Z,936.6641235
2022-11-21T16:22:45.700Z,936.6553345
2022-11-21T16:23:41.528Z,936.7028198
2022-11-21T16:24:42.221Z,936.7996826
2022-11-21T16:25:42.818Z,936.7754517
2022-11-21T16:26:43.406Z,936.7020264
2022-11-21T16:27:44.085Z,936.6674805
2022-11-21T16:28:44.635Z,936.7086182
2022-11-21T16:29:45.210Z,936.6810913
2022-11-21T16:30:45.863Z,936.6027832
2022-11-21T16:31:46.806Z,936.4915771
2022-11-21T16:32:47.389Z,936.5424805
2022-11-21T16:33:49.020Z,936.678772
2022-11-21T16:34:49.611Z,936.7062378
2022-11-21T16:35:50.461Z,936.7207642
2022-11-21T16:36:51.986Z,936.7579956
2022-11-21T16:37:53.478Z,936.7175903
2022-11-21T16:39:24.402Z,936.7020874
2022-11-21T16:40:24.964Z,936.644043
2022-11-21T16:41:25.535Z,936.6715088
2022-11-21T16:42:26.120Z,936.7270508
2022-11-21T16:43:27.803Z,936.7893677
2022-11-21T16:44:28.365Z,936.6727905
2022-11-21T16:45:29.042Z,936.5906372
2022-11-21T16:46:29.667Z,936.6616211
2022-11-21T16:47:30.350Z,936.6937256
2022-11-21T16:48:31.039Z,936.6646729
2022-11-21T16:49:31.956Z,936.5709229
2022-11-21T16:50:32.550Z,936.5515747
2022-11-21T16:51:33.044Z,936.5657959
2022-11-21T16:52:34.365Z,936.5788574
2022-11-21T16:53:35.644Z,936.6140747
2022-11-21T16:54:36.213Z,936.6592407
2022-11-21T16:55:36.904Z,936.6706543
2022-11-21T16:56:37.460Z,936.6762695
2022-11-21T16:57:38.110Z,936.6801758
2022-11-21T16:58:38.612Z,936.7495117
2022-11-21T16:59:40.184Z,936.7848511
2022-11-21T17:00:40.833Z,936.763916
2022-11-21T17:01:41.401Z,936.6853027
2022-11-21T17:02:41.796Z,936.6062622
2022-11-21T17:03:43.133Z,936.5988159
2022-11-21T17:04:43.684Z,936.6296387
2022-11-21T17:05:44.238Z,936.6882935
2022-11-21T17:06:45.498Z,936.6287231
2022-11-21T17:07:47.292Z,936.6132813
2022-11-21T17:08:47.139Z,936.6520386
2022-11-21T17:09:47.130Z,936.6495361
2022-11-21T17:10:47.698Z,936.5720215
2022-11-21T17:11:48.299Z,936.6525269
2022-11-21T17:12:48.771Z,936.7703247
2022-11-21T17:13:50.177Z,936.8381348
2022-11-21T17:14:50.959Z,936.8395386
2022-11-21T17:15:51.502Z,936.8379517
2022-11-21T17:16:52.583Z,936.7498169
2022-11-21T17:18:23.339Z,936.6796265
2022-11-21T17:19:23.845Z,936.7287598
2022-11-21T17:20:24.446Z,936.7787476
2022-11-21T17:21:25.196Z,936.7529907
2022-11-21T17:22:25.842Z,936.7648315
2022-11-21T17:23:27.095Z,936.7214355
2022-11-21T17:24:28.105Z,936.7490845
2022-11-21T17:25:28.302Z,936.7514038
2022-11-21T17:26:28.930Z,936.7142334
2022-11-21T17:27:29.599Z,936.7223511
2022-11-21T17:28:30.251Z,936.6877441
2022-11-21T17:29:30.729Z,936.7432861
2022-11-21T17:30:31.228Z,936.7754517
2022-11-21T17:31:31.995Z,936.7926025
2022-11-21T17:32:32.692Z,936.7884521
2022-11-21T17:33:34.216Z,936.7878418
2022-11-21T17:34:35.286Z,936.7729492
2022-11-21T17:35:36.122Z,936.7868652
2022-11-21T17:36:36.677Z,936.7310181
2022-11-21T17:37:37.491Z,936.6988525
2022-11-21T17:38:38.156Z,936.7091675
2022-11-21T17:39:38.934Z,936.6437378
2022-11-21T17:40:39.468Z,936.5808105
2022-11-21T17:41:39.968Z,936.6253052
2022-11-21T17:42:40.693Z,936.6372681
2022-11-21T17:43:42.144Z,936.6856079
2022-11-21T17:44:42.851Z,936.6766357
2022-11-21T17:45:43.437Z,936.5928345
2022-11-21T17:46:43.940Z,936.5889282
2022-11-21T17:47:44.425Z,936.6073608
2022-11-21T17:48:49.777Z,936.5654907
2022-11-21T17:49:46.097Z,936.5523682
2022-11-21T17:50:46.840Z,936.541748
2022-11-21T17:51:47.325Z,936.5457153
2022-11-21T17:52:48.379Z,936.5083618
2022-11-21T17:53:49.803Z,936.5291138
2022-11-21T17:54:50.522Z,936.5605469
2022-11-21T17:55:51.153Z,936.5426025
2022-11-21T17:56:56.590Z,936.5582886
2022-11-21T17:58:22.780Z,936.5435791
2022-11-21T17:59:23.340Z,936.5604858
2022-11-21T18:00:23.964Z,936.5738525
2022-11-21T18:01:24.824Z,936.5713501
2022-11-21T18:02:25.499Z,936.5268555
2022-11-21T18:03:25.976Z,936.524353
2022-11-21T18:04:27.371Z,936.5653687
2022-11-21T18:05:27.983Z,936.5177612
2022-11-21T18:06:29.762Z,936.5596924
2022-11-21T18:07:30.644Z,936.5658569
2022-11-21T18:08:31.014Z,936.5772095
2022-11-21T18:09:31.586Z,936.6037598
2022-11-21T18:10:42.197Z,936.6124878
2022-11-21T18:11:38.970Z,936.5679932
2022-11-21T18:12:33.454Z,936.550293
2022-11-21T18:13:34.062Z,936.5786133
2022-11-21T18:14:35.366Z,936.5615845
2022-11-21T18:15:35.810Z,936.572876
2022-11-21T18:16:36.716Z,936.5534668
2022-11-21T18:17:37.352Z,936.5776367
2022-11-21T18:18:38.053Z,936.5767212
2022-11-21T18:19:38.527Z,936.5776367
2022-11-21T18:20:39.062Z,936.5874023
2022-11-21T18:21:39.632Z,936.6300049
2022-11-21T18:22:40.607Z,936.6300049
2022-11-21T18:23:41.442Z,936.680603
2022-11-21T18:24:42.983Z,936.6774902
2022-11-21T18:25:43.556Z,936.649353
2022-11-21T18:26:44.117Z,936.6702881
2022-11-21T18:27:50.135Z,936.6613159
2022-11-21T18:28:46.853Z,936.6994019
2022-11-21T18:29:47.019Z,936.7114258
2022-11-21T18:30:47.066Z,936.7178345
2022-11-21T18:31:47.585Z,936.7313843
2022-11-21T18:32:48.087Z,936.7714233
2022-11-21T18:33:48.851Z,936.8092041
2022-11-21T18:34:50.084Z,936.8106079
2022-11-21T18:35:50.808Z,936.7920532
2022-11-21T18:36:52.624Z,936.8843994
2022-11-21T18:38:47.408Z,936.8703003
2022-11-21T18:39:24.100Z,936.8919678
2022-11-21T18:40:25.631Z,936.8845825
2022-11-21T18:41:26.171Z,936.8585815
2022-11-21T18:42:26.696Z,936.8544312
2022-11-21T18:43:27.236Z,936.876709
2022-11-21T18:44:28.852Z,936.899353
2022-11-21T18:45:29.463Z,936.8796997
2022-11-21T18:46:30.202Z,936.8845825
2022-11-21T18:47:30.847Z,936.8326416
2022-11-21T18:49:00.154Z,936.855957
2022-11-21T18:49:32.109Z,936.8737793
2022-11-21T18:50:32.501Z,936.8300171
2022-11-21T18:51:33.224Z,936.8515625
2022-11-21T18:52:33.950Z,936.8538818
2022-11-21T18:53:34.422Z,936.8322754
2022-11-21T18:54:35.975Z,936.8223267
2022-11-21T18:55:36.486Z,936.8571777
2022-11-21T18:56:37.374Z,936.8690796
2022-11-21T18:57:38.015Z,936.8626709
2022-11-21T18:58:38.662Z,936.8764038
2022-11-21T18:59:39.115Z,936.9073486
2022-11-21T19:00:39.567Z,936.8838501
2022-11-21T19:01:40.339Z,936.8783569
2022-11-21T19:02:41.050Z,936.8903198
2022-11-21T19:03:41.805Z,936.8380737
2022-11-21T19:04:42.890Z,936.8373413
2022-11-21T19:05:43.377Z,936.8612671
2022-11-21T19:06:44.546Z,936.7926636
2022-11-21T19:07:45.311Z,936.7595215
2022-11-21T19:08:46.054Z,936.7235718
2022-11-21T19:09:46.792Z,936.7565918
2022-11-21T19:10:47.591Z,936.7949219
2022-11-21T19:11:48.091Z,936.7373657
2022-11-21T19:12:48.854Z,936.6765747
2022-11-21T19:13:49.543Z,936.6521606
2022-11-21T19:14:51.499Z,936.6077881
2022-11-21T19:16:22.643Z,936.6262207
2022-11-21T19:17:23.150Z,936.6920166
2022-11-21T19:18:23.866Z,936.6073608
2022-11-21T19:19:35.865Z,936.6325073
2022-11-21T19:20:25.773Z,936.6122437
2022-11-21T19:21:26.301Z,936.6583862
2022-11-21T19:22:26.887Z,936.6622925
2022-11-21T19:23:27.308Z,936.5604858
2022-11-21T19:24:28.742Z,936.5935669
2022-11-21T19:25:29.482Z,936.6138916
2022-11-21T19:26:30.122Z,936.5984497
2022-11-21T19:27:31.314Z,936.6065674
2022-11-21T19:28:31.776Z,936.647522
2022-11-21T19:29:32.541Z,936.5726318
2022-11-21T19:30:33.266Z,936.5443726
2022-11-21T19:31:36.694Z,936.5650024
2022-11-21T19:32:34.659Z,936.4877319
2022-11-21T19:33:35.167Z,936.3853149
2022-11-21T19:34:36.623Z,936.4494629
2022-11-21T19:35:37.499Z,936.4504395
2022-11-21T19:36:38.668Z,936.4453125
2022-11-21T19:37:39.526Z,936.4430542
2022-11-21T19:38:40.145Z,936.4501343
2022-11-21T19:39:40.799Z,936.3267822
2022-11-21T19:40:41.335Z,936.3605957
2022-11-21T19:41:42.204Z,936.3877563
2022-11-21T19:42:42.917Z,936.3104858
2022-11-21T19:43:43.554Z,936.3652344
2022-11-21T19:44:44.060Z,936.4364624
2022-11-21T19:45:44.570Z,936.3407593
2022-11-21T19:46:45.182Z,936.3043823
2022-11-21T19:47:45.891Z,936.3936768
2022-11-21T19:48:46.735Z,936.3289795
2022-11-21T19:49:47.412Z,936.2410889
2022-11-21T19:50:52.781Z,936.2820435
2022-11-21T19:51:49.575Z,936.3329468
2022-11-21T19:52:50.301Z,936.1743774
2022-11-21T19:54:22.217Z,936.1695557
2022-11-21T19:55:22.884Z,936.1865845
2022-11-21T19:56:23.614Z,936.1157227
2022-11-21T19:57:23.981Z,936.024231
2022-11-21T19:58:25.707Z,936.1506958
2022-11-21T19:59:26.822Z,936.2619019
2022-11-21T20:00:27.123Z,936.149353
2022-11-21T20:01:27.852Z,936.1397095
2022-11-21T20:02:28.280Z,936.2355957
2022-11-21T20:03:29.049Z,936.2163086
2022-11-21T20:04:30.855Z,936.2237549
2022-11-21T20:05:31.334Z,936.2253418
2022-11-21T20:06:32.611Z,936.1512451
2022-11-21T20:07:33.045Z,936.2327271
2022-11-21T20:08:33.503Z,936.178894
2022-11-21T20:09:34.887Z,936.1350708
2022-11-21T20:10:34.896Z,936.2053223
2022-11-21T20:11:35.590Z,936.2189331
2022-11-21T20:12:36.042Z,936.1325684
2022-11-21T20:13:36.518Z,936.1177979
2022-11-21T20:14:37.617Z,936.0946655
2022-11-21T20:15:38.363Z,936.0315552
2022-11-21T20:16:39.262Z,936.0476685
2022-11-21T20:17:39.515Z,936.0308838
2022-11-21T20:18:40.034Z,936.0257568
2022-11-21T20:19:40.553Z,936.0482788
2022-11-21T20:20:41.315Z,936.0540771
2022-11-21T20:21:42.201Z,936.012207
2022-11-21T20:22:42.608Z,935.9857788
2022-11-21T20:23:43.018Z,935.989624
2022-11-21T20:24:47.508Z,935.9785767
2022-11-21T20:25:44.492Z,936.0043945
2022-11-21T20:26:45.217Z,935.9754639
2022-11-21T20:27:45.778Z,935.994751
2022-11-21T20:28:46.374Z,935.9561157
2022-11-21T20:29:47.082Z,936.0479126
2022-11-21T20:30:47.585Z,936.0617065
2022-11-21T20:31:48.588Z,936.060791
2022-11-21T20:32:48.917Z,936.1045532
2022-11-21T20:33:49.606Z,936.1029053
2022-11-21T20:35:21.337Z,936.0668945
2022-11-21T20:36:22.598Z,936.0939331
2022-11-21T20:37:23.459Z,936.0809937
2022-11-21T20:38:24.642Z,936.0633545
2022-11-21T20:39:24.587Z,936.0318604
2022-11-21T20:40:25.116Z,936.0057983
2022-11-21T20:41:25.550Z,935.9848633
2022-11-21T20:42:26.628Z,936.0521851
2022-11-21T20:43:52.694Z,936.0689087
2022-11-21T20:45:29.967Z,936.0455322
2022-11-21T20:46:29.317Z,936.1121826
2022-11-21T20:47:29.806Z,936.0736084
2022-11-21T20:48:30.325Z,936.0195313
2022-11-21T20:49:31.177Z,936.0510864
2022-11-21T20:51:25.197Z,936.0793457
2022-11-21T20:53:06.345Z,936.0648193
2022-11-21T20:53:44.316Z,936.0786133
2022-11-21T20:53:52.602Z,936.0328979
2022-11-21T20:54:33.711Z,936.0112305
2022-11-21T20:55:35.082Z,935.9896851
2022-11-21T20:56:35.839Z,936.0018921
2022-11-21T20:57:36.508Z,936.0002441
2022-11-21T20:58:36.843Z,935.9696045
2022-11-21T20:59:37.519Z,935.9512329
2022-11-21T21:00:38.349Z,935.9728394
2022-11-21T21:01:39.160Z,936.003418
2022-11-21T21:02:39.560Z,935.9625244
2022-11-21T21:03:40.159Z,936.0205688
2022-11-21T21:04:40.630Z,935.9921875
2022-11-21T21:05:41.799Z,936.0446777
2022-11-21T21:06:43.113Z,936.1212769
2022-11-21T21:07:43.884Z,936.1260986
2022-11-21T21:08:44.853Z,936.109375
2022-11-21T21:09:45.333Z,936.166626
2022-11-21T21:11:05.326Z,936.121582
2022-11-21T21:11:52.659Z,936.1201782
2022-11-21T21:12:48.613Z,936.1088867
2022-11-21T21:13:47.774Z,936.0576782
2022-11-21T21:14:48.257Z,936.1036987
2022-11-21T21:15:49.325Z,936.1287231
2022-11-21T21:17:20.486Z,936.1184082
2022-11-21T21:18:21.209Z,936.0909424
2022-11-21T21:19:21.946Z,936.0557861
2022-11-21T21:20:22.985Z,936.0728149
2022-11-21T21:21:23.652Z,936.0321655
2022-11-21T21:22:24.304Z,936.0112305
2022-11-21T21:23:24.961Z,935.999939
2022-11-21T21:24:25.486Z,935.9702148
2022-11-21T21:25:26.959Z,935.9769287
2022-11-21T21:26:27.434Z,935.9463501
2022-11-21T21:27:27.895Z,936.0117188
2022-11-21T21:28:28.505Z,935.9504395
2022-11-21T21:29:29.804Z,936.0093994
2022-11-21T21:30:30.134Z,935.9587402
2022-11-21T21:31:30.806Z,935.999939
2022-11-21T21:32:31.822Z,935.9612427
2022-11-21T21:33:32.463Z,935.8703003
2022-11-21T21:34:33.240Z,935.8487549
2022-11-21T21:35:34.317Z,935.9180298
2022-11-21T21:36:35.607Z,935.8945313
2022-11-21T21:37:36.107Z,935.8148193
2022-11-21T21:38:37.232Z,935.8867188
2022-11-21T21:39:37.326Z,935.9334106
2022-11-21T21:40:38.085Z,935.8979492
2022-11-21T21:41:38.851Z,935.9237671
2022-11-21T21:42:39.360Z,936.0172119
2022-11-21T21:43:39.918Z,935.9437256
2022-11-21T21:44:40.595Z,935.9978027
2022-11-21T21:45:41.604Z,935.9849854
2022-11-21T21:46:42.351Z,935.9626465
2022-11-21T21:47:43.047Z,935.9255981
2022-11-21T21:48:43.803Z,935.9642334
2022-11-21T21:49:44.432Z,935.9854736
2022-11-21T21:50:45.217Z,935.9660645
2022-11-21T21:51:45.857Z,935.9621582
2022-11-21T21:52:46.659Z,936.0015869
2022-11-21T21:53:47.338Z,935.980835
2022-11-21T21:54:47.786Z,935.9653931
2022-11-21T21:55:48.837Z,935.9872437
2022-11-21T21:57:19.662Z,936.0333862
2022-11-21T21:58:20.108Z,936.0646362
2022-11-21T21:59:20.658Z,936.052002
2022-11-21T22:00:21.852Z,936.0593872
2022-11-21T22:01:22.677Z,936.072876
2022-11-21T22:02:23.056Z,936.041626
2022-11-21T22:03:24.364Z,936.0093994
2022-11-21T22:04:24.886Z,936.0625
2022-11-21T22:05:26.099Z,936.0882568
2022-11-21T22:06:26.561Z,936.0431519
2022-11-21T22:07:27.959Z,936.03125
2022-11-21T22:08:28.252Z,936.0119019
2022-11-21T22:09:28.955Z,936.0103149
2022-11-21T22:10:29.146Z,936.0344238
2022-11-21T22:11:29.627Z,936.0585938
2022-11-21T22:12:30.137Z,936.0463867
2022-11-21T22:13:30.586Z,936.0424805
2022-11-21T22:14:31.569Z,936.0261841
2022-11-21T22:15:32.102Z,935.9720459
2022-11-21T22:16:32.595Z,935.9898682
2022-11-21T22:17:33.033Z,935.9840698
2022-11-21T22:18:34.104Z,935.958252
2022-11-21T22:19:34.661Z,936.00177
2022-11-21T22:20:34.974Z,935.9692993
2022-11-21T22:21:35.451Z,935.9196777
2022-11-21T22:22:35.908Z,935.8406982
2022-11-21T22:23:46.689Z,935.8986206
2022-11-21T22:24:37.920Z,935.8357544
2022-11-21T22:25:39.098Z,935.8686523
2022-11-21T22:26:39.620Z,935.8599854
2022-11-21T22:27:40.086Z,935.8106079
2022-11-21T22:28:40.559Z,935.7993774
2022-11-21T22:29:41.052Z,935.8512573
2022-11-21T22:30:41.539Z,935.8293457
2022-11-21T22:31:41.999Z,935.8621826
2022-11-21T22:32:42.440Z,935.8944702
2022-11-21T22:33:42.904Z,935.8961182
2022-11-21T22:34:43.327Z,935.921875
2022-11-21T22:35:44.619Z,935.9073486
2022-11-21T22:36:45.093Z,935.9379883
2022-11-21T22:37:46.307Z,935.8912354
2022-11-21T22:38:46.791Z,935.9187622
2022-11-21T22:39:47.271Z,935.8623657
2022-11-21T22:40:47.767Z,935.8156128
2022-11-21T22:41:48.218Z,935.8314209
2022-11-21T22:43:19.132Z,935.874939
2022-11-21T22:44:19.567Z,935.8775024
2022-11-21T22:45:20.153Z,935.8098145
2022-11-21T22:46:20.500Z,935.850769
2022-11-21T22:47:21.829Z,935.8984375
2022-11-21T22:48:22.543Z,935.8114014
2022-11-21T22:49:23.017Z,935.8250122
2022-11-21T22:50:23.484Z,935.8265381
2022-11-21T22:51:23.896Z,935.8726807
2022-11-21T22:52:24.430Z,935.8816528
2022-11-21T22:53:25.298Z,935.8403931
2022-11-21T22:54:25.796Z,935.7952881
2022-11-21T22:55:26.335Z,935.7839966
2022-11-21T22:56:27.406Z,935.8035889
2022-11-21T22:57:27.839Z,935.8375244
2022-11-21T22:58:28.324Z,935.7665405
2022-11-21T22:59:28.823Z,935.7084961
2022-11-21T23:00:29.421Z,935.7423706
2022-11-21T23:01:29.872Z,935.7945557
2022-11-21T23:02:30.261Z,935.7817383
2022-11-21T23:03:30.740Z,935.7446899
2022-11-21T23:04:31.566Z,935.7105713
2022-11-21T23:05:32.754Z,935.7583008
2022-11-21T23:06:33.169Z,935.7692261
2022-11-21T23:07:34.463Z,935.6757813
2022-11-21T23:08:34.855Z,935.75
2022-11-21T23:09:35.306Z,935.7265625
2022-11-21T23:10:35.884Z,935.8183594
2022-11-21T23:11:40.604Z,935.8096313
2022-11-21T23:12:36.744Z,935.7909546
2022-11-21T23:13:37.250Z,935.8457642
2022-11-21T23:14:37.691Z,935.7313843
2022-11-21T23:15:39.130Z,935.7667236
2022-11-21T23:16:39.540Z,935.7957764
2022-11-21T23:17:40.010Z,935.8531494
2022-11-21T23:18:40.520Z,935.8218994
2022-11-21T23:19:40.981Z,935.7556763
2022-11-21T23:20:41.468Z,935.8169556
2022-11-21T23:21:41.910Z,935.8426514
2022-11-21T23:22:42.365Z,935.8655396
2022-11-21T23:23:42.825Z,935.8091431
2022-11-21T23:24:43.272Z,935.7495117
2022-11-21T23:25:44.597Z,935.8043213
2022-11-21T23:26:45.055Z,935.7832642
2022-11-21T23:27:45.567Z,935.8077393
2022-11-21T23:28:46.059Z,935.9124756
2022-11-21T23:29:46.510Z,935.9004517
2022-11-21T23:30:47.223Z,935.9037476
2022-11-21T23:31:47.615Z,935.8724365
2022-11-21T23:33:18.517Z,935.8279419
2022-11-21T23:34:18.990Z,935.9068604
2022-11-21T23:35:19.481Z,935.9310913
2022-11-21T23:36:20.843Z,935.9584961
2022-11-21T23:37:22.185Z,936.0245361
2022-11-21T23:38:22.797Z,935.9955444
2022-11-21T23:39:23.240Z,936.0020142
2022-11-21T23:40:23.692Z,936.0429688
2022-11-21T23:41:24.150Z,936.0736084
2022-11-21T23:42:24.626Z,936.0664673
2022-11-21T23:43:25.078Z,936.0906982
2022-11-21T23:44:25.507Z,936.1154785
2022-11-21T23:45:25.999Z,936.092041
2022-11-21T23:46:26.486Z,936.1056519
2022-11-21T23:47:27.644Z,936.1369019
2022-11-21T23:48:27.996Z,936.1795044
2022-11-21T23:49:28.649Z,936.1834106
2022-11-21T23:50:28.911Z,936.2040405
2022-11-21T23:51:29.389Z,936.1983643
2022-11-21T23:52:29.825Z,936.201416
2022-11-21T23:53:30.319Z,936.2107544
2022-11-21T23:54:30.788Z,936.1986084
2022-11-21T23:55:31.256Z,936.1918945
2022-11-21T23:56:32.310Z,936.211853
2022-11-21T23:57:32.888Z,936.1900635
2022-11-21T23:58:33.221Z,936.2422485
2022-11-21T23:59:33.633Z,936.2062378
